sensor_id;sensor_type;location;lat;lon;timestamp;P1;durP1;ratioP1;P2;durP2;ratioP2
47153;SDS011;32907;41.412;2.164;2023-06-19T00:02:22;4.57;;;3.20;;
47153;SDS011;32907;41.412;2.164;2023-06-19T00:04:50;6.63;;;3.17;;
47153;SDS011;32907;41.412;2.164;2023-06-19T00:07:17;4.93;;;3.20;;
47153;SDS011;32907;41.412;2.164;2023-06-19T00:09:46;3.85;;;3.20;;
47153;SDS011;32907;41.412;2.164;2023-06-19T00:12:14;4.68;;;3.28;;
47153;SDS011;32907;41.412;2.164;2023-06-19T00:14:46;4.90;;;3.03;;
47153;SDS011;32907;41.412;2.164;2023-06-19T00:17:16;3.90;;;2.83;;
47153;SDS011;32907;41.412;2.164;2023-06-19T00:19:44;4.78;;;3.10;;
47153;SDS011;32907;41.412;2.164;2023-06-19T00:22:14;4.40;;;3.00;;
47153;SDS011;32907;41.412;2.164;2023-06-19T00:24:42;4.68;;;3.25;;
47153;SDS011;32907;41.412;2.164;2023-06-19T00:27:12;3.60;;;2.70;;
47153;SDS011;32907;41.412;2.164;2023-06-19T00:29:40;5.85;;;3.00;;
47153;SDS011;32907;41.412;2.164;2023-06-19T00:32:08;3.80;;;3.20;;
47153;SDS011;32907;41.412;2.164;2023-06-19T00:34:36;3.60;;;2.97;;
47153;SDS011;32907;41.412;2.164;2023-06-19T00:37:04;5.47;;;3.22;;
47153;SDS011;32907;41.412;2.164;2023-06-19T00:39:36;3.70;;;2.92;;
47153;SDS011;32907;41.412;2.164;2023-06-19T00:42:05;4.88;;;3.35;;
47153;SDS011;32907;41.412;2.164;2023-06-19T00:44:34;4.78;;;2.60;;
47153;SDS011;32907;41.412;2.164;2023-06-19T00:47:03;3.42;;;2.72;;
47153;SDS011;32907;41.412;2.164;2023-06-19T00:49:31;3.95;;;3.00;;
47153;SDS011;32907;41.412;2.164;2023-06-19T00:52:01;4.40;;;2.72;;
47153;SDS011;32907;41.412;2.164;2023-06-19T00:54:36;3.88;;;2.90;;
47153;SDS011;32907;41.412;2.164;2023-06-19T00:57:04;4.45;;;2.90;;
47153;SDS011;32907;41.412;2.164;2023-06-19T00:59:32;3.75;;;2.80;;
47153;SDS011;32907;41.412;2.164;2023-06-19T01:02:01;4.60;;;2.42;;
47153;SDS011;32907;41.412;2.164;2023-06-19T01:04:31;4.18;;;2.97;;
47153;SDS011;32907;41.412;2.164;2023-06-19T01:07:07;6.28;;;3.10;;
47153;SDS011;32907;41.412;2.164;2023-06-19T01:09:46;5.03;;;3.13;;
47153;SDS011;32907;41.412;2.164;2023-06-19T01:12:21;5.00;;;2.83;;
47153;SDS011;32907;41.412;2.164;2023-06-19T01:17:27;5.53;;;3.15;;
47153;SDS011;32907;41.412;2.164;2023-06-19T01:19:56;5.68;;;3.25;;
47153;SDS011;32907;41.412;2.164;2023-06-19T01:22:30;5.07;;;2.88;;
47153;SDS011;32907;41.412;2.164;2023-06-19T01:24:58;3.92;;;2.75;;
47153;SDS011;32907;41.412;2.164;2023-06-19T01:27:29;3.95;;;3.05;;
47153;SDS011;32907;41.412;2.164;2023-06-19T01:30:00;4.18;;;3.30;;
47153;SDS011;32907;41.412;2.164;2023-06-19T01:32:35;3.83;;;3.10;;
47153;SDS011;32907;41.412;2.164;2023-06-19T01:35:06;4.75;;;3.03;;
47153;SDS011;32907;41.412;2.164;2023-06-19T01:37:40;3.10;;;2.75;;
47153;SDS011;32907;41.412;2.164;2023-06-19T01:40:10;4.03;;;2.70;;
47153;SDS011;32907;41.412;2.164;2023-06-19T01:42:40;3.72;;;3.10;;
47153;SDS011;32907;41.412;2.164;2023-06-19T01:45:10;4.15;;;3.08;;
47153;SDS011;32907;41.412;2.164;2023-06-19T01:47:38;4.10;;;2.85;;
47153;SDS011;32907;41.412;2.164;2023-06-19T01:50:11;3.15;;;2.30;;
47153;SDS011;32907;41.412;2.164;2023-06-19T01:52:39;3.55;;;2.80;;
47153;SDS011;32907;41.412;2.164;2023-06-19T01:55:07;4.32;;;3.30;;
47153;SDS011;32907;41.412;2.164;2023-06-19T01:57:38;4.93;;;3.13;;
47153;SDS011;32907;41.412;2.164;2023-06-19T02:00:08;5.38;;;3.20;;
47153;SDS011;32907;41.412;2.164;2023-06-19T02:02:40;4.95;;;3.17;;
47153;SDS011;32907;41.412;2.164;2023-06-19T02:05:08;4.15;;;2.92;;
47153;SDS011;32907;41.412;2.164;2023-06-19T02:07:36;5.47;;;3.53;;
47153;SDS011;32907;41.412;2.164;2023-06-19T02:10:05;3.83;;;2.97;;
47153;SDS011;32907;41.412;2.164;2023-06-19T02:12:37;6.93;;;3.42;;
47153;SDS011;32907;41.412;2.164;2023-06-19T02:15:06;4.07;;;3.08;;
47153;SDS011;32907;41.412;2.164;2023-06-19T02:17:36;5.47;;;3.20;;
47153;SDS011;32907;41.412;2.164;2023-06-19T02:20:04;3.42;;;3.13;;
47153;SDS011;32907;41.412;2.164;2023-06-19T02:22:40;5.72;;;2.78;;
47153;SDS011;32907;41.412;2.164;2023-06-19T02:25:10;3.45;;;3.00;;
47153;SDS011;32907;41.412;2.164;2023-06-19T02:27:38;4.00;;;2.95;;
47153;SDS011;32907;41.412;2.164;2023-06-19T02:30:06;3.53;;;2.60;;
47153;SDS011;32907;41.412;2.164;2023-06-19T02:32:39;4.38;;;2.63;;
47153;SDS011;32907;41.412;2.164;2023-06-19T02:35:10;4.22;;;2.95;;
47153;SDS011;32907;41.412;2.164;2023-06-19T02:37:39;3.50;;;2.80;;
47153;SDS011;32907;41.412;2.164;2023-06-19T02:40:07;3.65;;;2.60;;
47153;SDS011;32907;41.412;2.164;2023-06-19T02:42:39;4.55;;;2.63;;
47153;SDS011;32907;41.412;2.164;2023-06-19T02:45:12;4.00;;;2.88;;
47153;SDS011;32907;41.412;2.164;2023-06-19T02:47:41;4.55;;;2.50;;
47153;SDS011;32907;41.412;2.164;2023-06-19T02:50:09;3.47;;;2.75;;
47153;SDS011;32907;41.412;2.164;2023-06-19T02:52:37;5.13;;;2.90;;
47153;SDS011;32907;41.412;2.164;2023-06-19T02:55:08;5.43;;;2.90;;
47153;SDS011;32907;41.412;2.164;2023-06-19T02:57:36;4.20;;;2.55;;
47153;SDS011;32907;41.412;2.164;2023-06-19T03:00:04;3.13;;;2.55;;
47153;SDS011;32907;41.412;2.164;2023-06-19T03:02:38;3.63;;;2.85;;
47153;SDS011;32907;41.412;2.164;2023-06-19T03:05:12;6.18;;;3.17;;
47153;SDS011;32907;41.412;2.164;2023-06-19T03:07:42;3.53;;;2.97;;
47153;SDS011;32907;41.412;2.164;2023-06-19T03:10:10;5.70;;;3.40;;
47153;SDS011;32907;41.412;2.164;2023-06-19T03:12:38;4.68;;;2.70;;
47153;SDS011;32907;41.412;2.164;2023-06-19T03:15:06;4.47;;;2.72;;
47153;SDS011;32907;41.412;2.164;2023-06-19T03:17:40;3.47;;;2.60;;
47153;SDS011;32907;41.412;2.164;2023-06-19T03:20:11;4.75;;;2.95;;
47153;SDS011;32907;41.412;2.164;2023-06-19T03:22:44;3.60;;;2.75;;
47153;SDS011;32907;41.412;2.164;2023-06-19T03:25:15;6.20;;;3.00;;
47153;SDS011;32907;41.412;2.164;2023-06-19T03:27:44;4.95;;;2.92;;
47153;SDS011;32907;41.412;2.164;2023-06-19T03:30:12;4.40;;;3.10;;
47153;SDS011;32907;41.412;2.164;2023-06-19T03:32:45;5.18;;;2.83;;
47153;SDS011;32907;41.412;2.164;2023-06-19T03:35:28;3.15;;;2.83;;
47153;SDS011;32907;41.412;2.164;2023-06-19T03:37:57;5.32;;;3.20;;
47153;SDS011;32907;41.412;2.164;2023-06-19T03:40:26;5.30;;;3.20;;
47153;SDS011;32907;41.412;2.164;2023-06-19T03:43:06;3.90;;;2.70;;
47153;SDS011;32907;41.412;2.164;2023-06-19T03:45:35;8.20;;;3.20;;
47153;SDS011;32907;41.412;2.164;2023-06-19T03:48:03;7.32;;;3.17;;
47153;SDS011;32907;41.412;2.164;2023-06-19T03:50:34;3.95;;;3.00;;
47153;SDS011;32907;41.412;2.164;2023-06-19T03:53:07;4.18;;;3.10;;
47153;SDS011;32907;41.412;2.164;2023-06-19T03:55:36;5.43;;;3.10;;
47153;SDS011;32907;41.412;2.164;2023-06-19T03:58:05;5.60;;;2.97;;
47153;SDS011;32907;41.412;2.164;2023-06-19T04:00:33;5.63;;;3.47;;
47153;SDS011;32907;41.412;2.164;2023-06-19T04:03:01;4.53;;;3.40;;
47153;SDS011;32907;41.412;2.164;2023-06-19T04:05:29;6.45;;;3.47;;
47153;SDS011;32907;41.412;2.164;2023-06-19T04:07:57;5.47;;;3.00;;
47153;SDS011;32907;41.412;2.164;2023-06-19T04:10:26;4.88;;;2.90;;
47153;SDS011;32907;41.412;2.164;2023-06-19T04:12:54;4.68;;;2.90;;
47153;SDS011;32907;41.412;2.164;2023-06-19T04:15:23;4.75;;;3.15;;
47153;SDS011;32907;41.412;2.164;2023-06-19T04:17:51;4.72;;;3.40;;
47153;SDS011;32907;41.412;2.164;2023-06-19T04:20:19;6.68;;;3.30;;
47153;SDS011;32907;41.412;2.164;2023-06-19T04:22:47;6.28;;;3.28;;
47153;SDS011;32907;41.412;2.164;2023-06-19T04:25:15;6.40;;;4.55;;
47153;SDS011;32907;41.412;2.164;2023-06-19T04:27:43;7.38;;;5.25;;
47153;SDS011;32907;41.412;2.164;2023-06-19T04:30:12;5.78;;;4.20;;
47153;SDS011;32907;41.412;2.164;2023-06-19T04:32:40;5.95;;;4.50;;
47153;SDS011;32907;41.412;2.164;2023-06-19T04:35:09;6.18;;;4.20;;
47153;SDS011;32907;41.412;2.164;2023-06-19T04:37:37;4.25;;;3.20;;
47153;SDS011;32907;41.412;2.164;2023-06-19T04:40:06;7.07;;;3.70;;
47153;SDS011;32907;41.412;2.164;2023-06-19T04:42:35;8.32;;;4.07;;
47153;SDS011;32907;41.412;2.164;2023-06-19T04:45:05;5.97;;;5.38;;
47153;SDS011;32907;41.412;2.164;2023-06-19T04:47:35;9.57;;;6.63;;
47153;SDS011;32907;41.412;2.164;2023-06-19T04:50:19;6.90;;;4.82;;
47153;SDS011;32907;41.412;2.164;2023-06-19T04:52:49;6.55;;;4.13;;
47153;SDS011;32907;41.412;2.164;2023-06-19T04:55:19;6.55;;;4.38;;
47153;SDS011;32907;41.412;2.164;2023-06-19T04:57:47;4.85;;;3.72;;
47153;SDS011;32907;41.412;2.164;2023-06-19T05:00:15;6.35;;;3.47;;
47153;SDS011;32907;41.412;2.164;2023-06-19T05:02:47;5.65;;;3.50;;
47153;SDS011;32907;41.412;2.164;2023-06-19T05:05:18;8.27;;;3.60;;
47153;SDS011;32907;41.412;2.164;2023-06-19T05:07:50;10.30;;;4.75;;
47153;SDS011;32907;41.412;2.164;2023-06-19T05:10:18;12.55;;;5.28;;
47153;SDS011;32907;41.412;2.164;2023-06-19T05:12:46;9.15;;;4.18;;
47153;SDS011;32907;41.412;2.164;2023-06-19T05:15:15;7.63;;;4.00;;
47153;SDS011;32907;41.412;2.164;2023-06-19T05:17:43;7.93;;;4.95;;
47153;SDS011;32907;41.412;2.164;2023-06-19T05:20:14;10.63;;;5.47;;
47153;SDS011;32907;41.412;2.164;2023-06-19T05:22:45;10.30;;;4.57;;
47153;SDS011;32907;41.412;2.164;2023-06-19T05:25:13;5.25;;;3.70;;
47153;SDS011;32907;41.412;2.164;2023-06-19T05:27:41;5.32;;;3.72;;
47153;SDS011;32907;41.412;2.164;2023-06-19T05:30:09;6.03;;;3.10;;
47153;SDS011;32907;41.412;2.164;2023-06-19T05:32:37;6.50;;;3.40;;
47153;SDS011;32907;41.412;2.164;2023-06-19T05:35:05;4.10;;;3.10;;
47153;SDS011;32907;41.412;2.164;2023-06-19T05:37:34;5.28;;;3.30;;
47153;SDS011;32907;41.412;2.164;2023-06-19T05:40:02;6.75;;;3.17;;
47153;SDS011;32907;41.412;2.164;2023-06-19T05:42:33;5.68;;;3.30;;
47153;SDS011;32907;41.412;2.164;2023-06-19T05:45:03;5.47;;;3.70;;
47153;SDS011;32907;41.412;2.164;2023-06-19T05:47:31;5.93;;;3.30;;
47153;SDS011;32907;41.412;2.164;2023-06-19T05:50:00;6.03;;;3.60;;
47153;SDS011;32907;41.412;2.164;2023-06-19T05:52:28;4.85;;;3.30;;
47153;SDS011;32907;41.412;2.164;2023-06-19T05:54:56;6.57;;;3.17;;
47153;SDS011;32907;41.412;2.164;2023-06-19T05:57:26;9.55;;;3.72;;
47153;SDS011;32907;41.412;2.164;2023-06-19T05:59:56;5.30;;;2.85;;
47153;SDS011;32907;41.412;2.164;2023-06-19T06:02:24;5.18;;;3.10;;
47153;SDS011;32907;41.412;2.164;2023-06-19T06:04:56;8.90;;;3.55;;
47153;SDS011;32907;41.412;2.164;2023-06-19T06:07:24;7.18;;;3.35;;
47153;SDS011;32907;41.412;2.164;2023-06-19T06:09:56;5.18;;;3.40;;
47153;SDS011;32907;41.412;2.164;2023-06-19T06:12:24;7.93;;;3.53;;
47153;SDS011;32907;41.412;2.164;2023-06-19T06:14:54;5.82;;;3.63;;
47153;SDS011;32907;41.412;2.164;2023-06-19T06:17:22;12.02;;;4.13;;
47153;SDS011;32907;41.412;2.164;2023-06-19T06:19:51;7.80;;;3.70;;
47153;SDS011;32907;41.412;2.164;2023-06-19T06:22:20;8.48;;;3.58;;
47153;SDS011;32907;41.412;2.164;2023-06-19T06:24:48;6.75;;;3.75;;
47153;SDS011;32907;41.412;2.164;2023-06-19T06:27:17;7.22;;;3.92;;
47153;SDS011;32907;41.412;2.164;2023-06-19T06:29:46;6.20;;;3.78;;
47153;SDS011;32907;41.412;2.164;2023-06-19T06:32:14;8.75;;;4.07;;
47153;SDS011;32907;41.412;2.164;2023-06-19T06:34:42;10.20;;;3.85;;
47153;SDS011;32907;41.412;2.164;2023-06-19T06:37:10;7.68;;;3.72;;
47153;SDS011;32907;41.412;2.164;2023-06-19T06:39:38;6.45;;;3.53;;
47153;SDS011;32907;41.412;2.164;2023-06-19T06:42:06;8.52;;;3.83;;
47153;SDS011;32907;41.412;2.164;2023-06-19T06:44:36;6.47;;;4.03;;
47153;SDS011;32907;41.412;2.164;2023-06-19T06:47:03;8.77;;;3.90;;
47153;SDS011;32907;41.412;2.164;2023-06-19T06:49:32;10.90;;;3.60;;
47153;SDS011;32907;41.412;2.164;2023-06-19T06:52:00;8.20;;;3.95;;
47153;SDS011;32907;41.412;2.164;2023-06-19T06:54:28;9.90;;;3.80;;
47153;SDS011;32907;41.412;2.164;2023-06-19T06:56:57;5.70;;;3.42;;
47153;SDS011;32907;41.412;2.164;2023-06-19T06:59:27;5.82;;;3.83;;
47153;SDS011;32907;41.412;2.164;2023-06-19T07:01:55;6.20;;;3.60;;
47153;SDS011;32907;41.412;2.164;2023-06-19T07:04:25;5.05;;;3.35;;
47153;SDS011;32907;41.412;2.164;2023-06-19T07:06:53;12.80;;;4.10;;
47153;SDS011;32907;41.412;2.164;2023-06-19T07:09:21;5.40;;;3.30;;
47153;SDS011;32907;41.412;2.164;2023-06-19T07:11:53;8.52;;;3.83;;
47153;SDS011;32907;41.412;2.164;2023-06-19T07:14:20;6.97;;;3.40;;
47153;SDS011;32907;41.412;2.164;2023-06-19T07:16:49;8.30;;;3.90;;
47153;SDS011;32907;41.412;2.164;2023-06-19T07:19:18;6.97;;;3.70;;
47153;SDS011;32907;41.412;2.164;2023-06-19T07:21:46;8.98;;;4.03;;
47153;SDS011;32907;41.412;2.164;2023-06-19T07:24:17;8.25;;;3.92;;
47153;SDS011;32907;41.412;2.164;2023-06-19T07:26:48;8.70;;;4.40;;
47153;SDS011;32907;41.412;2.164;2023-06-19T07:29:16;7.68;;;4.50;;
47153;SDS011;32907;41.412;2.164;2023-06-19T07:31:44;8.90;;;4.45;;
47153;SDS011;32907;41.412;2.164;2023-06-19T07:34:13;8.63;;;3.83;;
47153;SDS011;32907;41.412;2.164;2023-06-19T07:36:41;8.60;;;3.70;;
47153;SDS011;32907;41.412;2.164;2023-06-19T07:39:14;7.03;;;3.80;;
47153;SDS011;32907;41.412;2.164;2023-06-19T07:41:42;9.30;;;3.78;;
47153;SDS011;32907;41.412;2.164;2023-06-19T07:44:12;10.20;;;3.53;;
47153;SDS011;32907;41.412;2.164;2023-06-19T07:46:40;8.18;;;3.58;;
47153;SDS011;32907;41.412;2.164;2023-06-19T07:49:08;6.15;;;3.30;;
47153;SDS011;32907;41.412;2.164;2023-06-19T07:51:36;5.50;;;3.10;;
47153;SDS011;32907;41.412;2.164;2023-06-19T07:54:05;7.25;;;3.17;;
47153;SDS011;32907;41.412;2.164;2023-06-19T07:56:33;6.70;;;3.20;;
47153;SDS011;32907;41.412;2.164;2023-06-19T07:59:02;8.35;;;3.75;;
47153;SDS011;32907;41.412;2.164;2023-06-19T08:01:32;6.35;;;3.33;;
47153;SDS011;32907;41.412;2.164;2023-06-19T08:04:00;7.25;;;3.42;;
47153;SDS011;32907;41.412;2.164;2023-06-19T08:06:28;5.25;;;3.08;;
47153;SDS011;32907;41.412;2.164;2023-06-19T08:08:56;5.65;;;3.20;;
47153;SDS011;32907;41.412;2.164;2023-06-19T08:11:24;6.28;;;3.58;;
47153;SDS011;32907;41.412;2.164;2023-06-19T08:13:52;6.45;;;3.72;;
47153;SDS011;32907;41.412;2.164;2023-06-19T08:16:20;7.78;;;3.60;;
47153;SDS011;32907;41.412;2.164;2023-06-19T08:18:48;5.75;;;3.75;;
47153;SDS011;32907;41.412;2.164;2023-06-19T08:21:16;8.13;;;3.50;;
47153;SDS011;32907;41.412;2.164;2023-06-19T08:23:45;6.95;;;3.30;;
47153;SDS011;32907;41.412;2.164;2023-06-19T08:26:16;5.45;;;3.67;;
47153;SDS011;32907;41.412;2.164;2023-06-19T08:28:45;8.07;;;3.38;;
47153;SDS011;32907;41.412;2.164;2023-06-19T08:31:13;8.18;;;3.65;;
47153;SDS011;32907;41.412;2.164;2023-06-19T08:33:41;5.70;;;3.55;;
47153;SDS011;32907;41.412;2.164;2023-06-19T08:36:09;5.45;;;3.40;;
47153;SDS011;32907;41.412;2.164;2023-06-19T08:38:37;5.97;;;3.83;;
47153;SDS011;32907;41.412;2.164;2023-06-19T08:41:05;6.22;;;3.63;;
47153;SDS011;32907;41.412;2.164;2023-06-19T08:43:33;8.45;;;4.18;;
47153;SDS011;32907;41.412;2.164;2023-06-19T08:48:40;5.28;;;3.15;;
47153;SDS011;32907;41.412;2.164;2023-06-19T08:51:11;7.72;;;4.00;;
47153;SDS011;32907;41.412;2.164;2023-06-19T08:53:49;6.15;;;3.55;;
47153;SDS011;32907;41.412;2.164;2023-06-19T08:56:22;9.88;;;4.78;;
47153;SDS011;32907;41.412;2.164;2023-06-19T08:58:50;9.35;;;3.83;;
47153;SDS011;32907;41.412;2.164;2023-06-19T09:01:18;9.07;;;3.90;;
47153;SDS011;32907;41.412;2.164;2023-06-19T09:03:47;8.25;;;4.35;;
47153;SDS011;32907;41.412;2.164;2023-06-19T09:06:20;7.82;;;4.53;;
47153;SDS011;32907;41.412;2.164;2023-06-19T09:08:57;9.93;;;4.40;;
47153;SDS011;32907;41.412;2.164;2023-06-19T09:11:26;6.93;;;4.45;;
47153;SDS011;32907;41.412;2.164;2023-06-19T09:13:58;8.50;;;5.03;;
47153;SDS011;32907;41.412;2.164;2023-06-19T09:16:49;8.98;;;5.07;;
47153;SDS011;32907;41.412;2.164;2023-06-19T09:19:20;7.85;;;4.97;;
47153;SDS011;32907;41.412;2.164;2023-06-19T09:21:48;9.90;;;5.20;;
47153;SDS011;32907;41.412;2.164;2023-06-19T09:24:17;7.43;;;4.95;;
47153;SDS011;32907;41.412;2.164;2023-06-19T09:26:45;9.23;;;4.60;;
47153;SDS011;32907;41.412;2.164;2023-06-19T09:29:13;8.25;;;4.43;;
47153;SDS011;32907;41.412;2.164;2023-06-19T09:31:47;5.18;;;4.03;;
47153;SDS011;32907;41.412;2.164;2023-06-19T09:34:16;6.80;;;4.53;;
47153;SDS011;32907;41.412;2.164;2023-06-19T09:36:44;7.47;;;4.57;;
47153;SDS011;32907;41.412;2.164;2023-06-19T09:39:13;7.85;;;4.43;;
47153;SDS011;32907;41.412;2.164;2023-06-19T09:41:43;7.78;;;4.35;;
47153;SDS011;32907;41.412;2.164;2023-06-19T09:44:15;9.00;;;4.25;;
47153;SDS011;32907;41.412;2.164;2023-06-19T09:46:51;6.82;;;4.70;;
47153;SDS011;32907;41.412;2.164;2023-06-19T09:49:23;5.82;;;3.72;;
47153;SDS011;32907;41.412;2.164;2023-06-19T09:51:55;8.95;;;4.35;;
47153;SDS011;32907;41.412;2.164;2023-06-19T09:54:25;6.00;;;4.00;;
47153;SDS011;32907;41.412;2.164;2023-06-19T09:56:55;7.90;;;4.15;;
47153;SDS011;32907;41.412;2.164;2023-06-19T09:59:26;7.00;;;3.67;;
47153;SDS011;32907;41.412;2.164;2023-06-19T10:01:55;6.88;;;4.20;;
47153;SDS011;32907;41.412;2.164;2023-06-19T10:04:24;7.00;;;4.07;;
47153;SDS011;32907;41.412;2.164;2023-06-19T10:06:52;7.05;;;4.18;;
47153;SDS011;32907;41.412;2.164;2023-06-19T10:09:22;8.50;;;4.65;;
47153;SDS011;32907;41.412;2.164;2023-06-19T10:11:51;8.65;;;4.22;;
47153;SDS011;32907;41.412;2.164;2023-06-19T10:14:21;7.53;;;4.07;;
47153;SDS011;32907;41.412;2.164;2023-06-19T10:16:52;7.85;;;3.75;;
47153;SDS011;32907;41.412;2.164;2023-06-19T10:19:21;14.30;;;3.67;;
47153;SDS011;32907;41.412;2.164;2023-06-19T10:21:50;5.57;;;4.57;;
47153;SDS011;32907;41.412;2.164;2023-06-19T10:24:22;8.05;;;3.97;;
47153;SDS011;32907;41.412;2.164;2023-06-19T10:27:00;4.68;;;3.20;;
47153;SDS011;32907;41.412;2.164;2023-06-19T10:30:16;10.07;;;3.83;;
47153;SDS011;32907;41.412;2.164;2023-06-19T10:32:31;9.43;;;4.22;;
47153;SDS011;32907;41.412;2.164;2023-06-19T10:34:59;10.05;;;3.72;;
47153;SDS011;32907;41.412;2.164;2023-06-19T10:37:33;6.80;;;3.97;;
47153;SDS011;32907;41.412;2.164;2023-06-19T10:40:01;7.40;;;3.47;;
47153;SDS011;32907;41.412;2.164;2023-06-19T10:42:30;6.97;;;3.72;;
47153;SDS011;32907;41.412;2.164;2023-06-19T10:45:02;9.77;;;3.83;;
47153;SDS011;32907;41.412;2.164;2023-06-19T10:47:32;8.00;;;3.40;;
47153;SDS011;32907;41.412;2.164;2023-06-19T10:50:00;8.75;;;3.75;;
47153;SDS011;32907;41.412;2.164;2023-06-19T10:52:29;4.45;;;3.17;;
47153;SDS011;32907;41.412;2.164;2023-06-19T10:54:58;6.38;;;3.10;;
47153;SDS011;32907;41.412;2.164;2023-06-19T10:57:31;6.65;;;3.40;;
47153;SDS011;32907;41.412;2.164;2023-06-19T10:59:59;7.20;;;3.50;;
47153;SDS011;32907;41.412;2.164;2023-06-19T11:02:28;10.30;;;3.85;;
47153;SDS011;32907;41.412;2.164;2023-06-19T11:04:58;7.55;;;3.72;;
47153;SDS011;32907;41.412;2.164;2023-06-19T11:07:29;7.63;;;3.53;;
47153;SDS011;32907;41.412;2.164;2023-06-19T11:09:59;5.93;;;3.75;;
47153;SDS011;32907;41.412;2.164;2023-06-19T11:12:28;9.85;;;3.92;;
47153;SDS011;32907;41.412;2.164;2023-06-19T11:14:56;7.72;;;4.00;;
47153;SDS011;32907;41.412;2.164;2023-06-19T11:17:24;5.90;;;4.03;;
47153;SDS011;32907;41.412;2.164;2023-06-19T11:19:52;5.82;;;3.40;;
47153;SDS011;32907;41.412;2.164;2023-06-19T11:22:20;8.82;;;3.38;;
47153;SDS011;32907;41.412;2.164;2023-06-19T11:24:48;8.95;;;3.85;;
47153;SDS011;32907;41.412;2.164;2023-06-19T11:27:22;7.70;;;4.72;;
47153;SDS011;32907;41.412;2.164;2023-06-19T11:29:55;7.13;;;4.30;;
47153;SDS011;32907;41.412;2.164;2023-06-19T11:32:36;15.82;;;8.00;;
47153;SDS011;32907;41.412;2.164;2023-06-19T11:35:09;115.10;;;59.30;;
47153;SDS011;32907;41.412;2.164;2023-06-19T11:37:42;86.72;;;51.53;;
47153;SDS011;32907;41.412;2.164;2023-06-19T11:40:13;35.53;;;24.50;;
47153;SDS011;32907;41.412;2.164;2023-06-19T11:42:44;16.42;;;11.50;;
47153;SDS011;32907;41.412;2.164;2023-06-19T11:45:15;9.27;;;6.20;;
47153;SDS011;32907;41.412;2.164;2023-06-19T11:47:46;6.88;;;4.47;;
47153;SDS011;32907;41.412;2.164;2023-06-19T11:50:17;5.82;;;3.88;;
47153;SDS011;32907;41.412;2.164;2023-06-19T11:52:47;6.40;;;3.50;;
47153;SDS011;32907;41.412;2.164;2023-06-19T11:55:19;4.57;;;3.00;;
47153;SDS011;32907;41.412;2.164;2023-06-19T11:57:47;6.10;;;3.28;;
47153;SDS011;32907;41.412;2.164;2023-06-19T12:00:15;7.07;;;3.53;;
47153;SDS011;32907;41.412;2.164;2023-06-19T12:02:45;9.35;;;3.22;;
47153;SDS011;32907;41.412;2.164;2023-06-19T12:05:17;6.30;;;3.58;;
47153;SDS011;32907;41.412;2.164;2023-06-19T12:07:45;4.97;;;3.08;;
47153;SDS011;32907;41.412;2.164;2023-06-19T12:10:15;4.68;;;2.88;;
47153;SDS011;32907;41.412;2.164;2023-06-19T12:12:43;6.07;;;3.47;;
47153;SDS011;32907;41.412;2.164;2023-06-19T12:15:12;5.00;;;3.47;;
47153;SDS011;32907;41.412;2.164;2023-06-19T12:17:40;4.20;;;3.13;;
47153;SDS011;32907;41.412;2.164;2023-06-19T12:20:08;4.40;;;3.40;;
47153;SDS011;32907;41.412;2.164;2023-06-19T12:22:37;4.80;;;3.13;;
47153;SDS011;32907;41.412;2.164;2023-06-19T12:25:05;6.03;;;3.70;;
47153;SDS011;32907;41.412;2.164;2023-06-19T12:27:37;7.18;;;3.50;;
47153;SDS011;32907;41.412;2.164;2023-06-19T12:30:05;7.68;;;4.20;;
47153;SDS011;32907;41.412;2.164;2023-06-19T12:32:37;10.38;;;5.30;;
47153;SDS011;32907;41.412;2.164;2023-06-19T12:35:05;14.43;;;4.47;;
47153;SDS011;32907;41.412;2.164;2023-06-19T12:37:33;7.57;;;3.88;;
47153;SDS011;32907;41.412;2.164;2023-06-19T12:40:09;9.68;;;3.58;;
47153;SDS011;32907;41.412;2.164;2023-06-19T12:42:38;8.25;;;3.90;;
47153;SDS011;32907;41.412;2.164;2023-06-19T12:45:07;5.78;;;3.33;;
47153;SDS011;32907;41.412;2.164;2023-06-19T12:47:36;7.47;;;4.05;;
47153;SDS011;32907;41.412;2.164;2023-06-19T12:50:04;6.15;;;3.60;;
47153;SDS011;32907;41.412;2.164;2023-06-19T12:52:32;7.72;;;3.38;;
47153;SDS011;32907;41.412;2.164;2023-06-19T12:55:00;10.45;;;3.83;;
47153;SDS011;32907;41.412;2.164;2023-06-19T12:57:30;6.00;;;2.90;;
47153;SDS011;32907;41.412;2.164;2023-06-19T12:59:57;7.43;;;3.78;;
47153;SDS011;32907;41.412;2.164;2023-06-19T13:02:25;7.70;;;3.45;;
47153;SDS011;32907;41.412;2.164;2023-06-19T13:04:53;7.13;;;3.72;;
47153;SDS011;32907;41.412;2.164;2023-06-19T13:07:21;5.93;;;3.50;;
47153;SDS011;32907;41.412;2.164;2023-06-19T13:09:49;6.10;;;3.20;;
47153;SDS011;32907;41.412;2.164;2023-06-19T13:12:19;5.90;;;3.30;;
47153;SDS011;32907;41.412;2.164;2023-06-19T13:14:47;9.40;;;3.75;;
47153;SDS011;32907;41.412;2.164;2023-06-19T13:17:16;8.75;;;4.40;;
47153;SDS011;32907;41.412;2.164;2023-06-19T13:19:43;11.20;;;4.95;;
47153;SDS011;32907;41.412;2.164;2023-06-19T13:22:13;6.88;;;4.03;;
47153;SDS011;32907;41.412;2.164;2023-06-19T13:24:44;6.75;;;3.30;;
47153;SDS011;32907;41.412;2.164;2023-06-19T13:27:13;8.50;;;3.58;;
47153;SDS011;32907;41.412;2.164;2023-06-19T13:29:44;10.25;;;4.35;;
47153;SDS011;32907;41.412;2.164;2023-06-19T13:32:11;6.63;;;3.65;;
47153;SDS011;32907;41.412;2.164;2023-06-19T13:34:40;12.50;;;3.70;;
47153;SDS011;32907;41.412;2.164;2023-06-19T13:37:07;12.10;;;4.15;;
47153;SDS011;32907;41.412;2.164;2023-06-19T13:39:36;7.65;;;3.95;;
47153;SDS011;32907;41.412;2.164;2023-06-19T13:42:07;8.35;;;3.40;;
47153;SDS011;32907;41.412;2.164;2023-06-19T13:44:35;5.13;;;3.40;;
47153;SDS011;32907;41.412;2.164;2023-06-19T13:47:03;8.02;;;3.10;;
47153;SDS011;32907;41.412;2.164;2023-06-19T13:49:32;5.93;;;3.15;;
47153;SDS011;32907;41.412;2.164;2023-06-19T13:52:00;6.25;;;3.63;;
47153;SDS011;32907;41.412;2.164;2023-06-19T13:54:28;7.68;;;3.45;;
47153;SDS011;32907;41.412;2.164;2023-06-19T13:56:56;6.40;;;3.58;;
47153;SDS011;32907;41.412;2.164;2023-06-19T13:59:24;5.70;;;3.72;;
47153;SDS011;32907;41.412;2.164;2023-06-19T14:01:52;7.20;;;3.60;;
47153;SDS011;32907;41.412;2.164;2023-06-19T14:04:21;4.40;;;3.33;;
47153;SDS011;32907;41.412;2.164;2023-06-19T14:06:49;4.47;;;2.90;;
47153;SDS011;32907;41.412;2.164;2023-06-19T14:09:17;8.05;;;3.55;;
47153;SDS011;32907;41.412;2.164;2023-06-19T14:11:44;5.93;;;3.50;;
47153;SDS011;32907;41.412;2.164;2023-06-19T14:14:14;6.38;;;3.50;;
47153;SDS011;32907;41.412;2.164;2023-06-19T14:16:42;6.18;;;3.65;;
47153;SDS011;32907;41.412;2.164;2023-06-19T14:19:10;7.45;;;4.07;;
47153;SDS011;32907;41.412;2.164;2023-06-19T14:21:38;8.20;;;3.33;;
47153;SDS011;32907;41.412;2.164;2023-06-19T14:24:06;6.00;;;3.40;;
47153;SDS011;32907;41.412;2.164;2023-06-19T14:26:34;5.78;;;3.17;;
47153;SDS011;32907;41.412;2.164;2023-06-19T14:29:04;6.68;;;2.92;;
47153;SDS011;32907;41.412;2.164;2023-06-19T14:31:31;5.40;;;3.00;;
47153;SDS011;32907;41.412;2.164;2023-06-19T14:33:59;6.68;;;3.28;;
47153;SDS011;32907;41.412;2.164;2023-06-19T14:36:27;5.65;;;2.70;;
47153;SDS011;32907;41.412;2.164;2023-06-19T14:38:55;3.70;;;2.72;;
47153;SDS011;32907;41.412;2.164;2023-06-19T14:41:24;4.88;;;2.80;;
47153;SDS011;32907;41.412;2.164;2023-06-19T14:43:51;4.10;;;3.00;;
47153;SDS011;32907;41.412;2.164;2023-06-19T14:46:19;8.43;;;3.20;;
47153;SDS011;32907;41.412;2.164;2023-06-19T14:49:06;9.27;;;3.33;;
47153;SDS011;32907;41.412;2.164;2023-06-19T14:51:34;5.55;;;3.00;;
47153;SDS011;32907;41.412;2.164;2023-06-19T14:54:02;7.00;;;3.10;;
47153;SDS011;32907;41.412;2.164;2023-06-19T14:56:30;6.05;;;2.92;;
47153;SDS011;32907;41.412;2.164;2023-06-19T14:58:59;5.72;;;2.80;;
47153;SDS011;32907;41.412;2.164;2023-06-19T15:01:27;6.45;;;2.88;;
47153;SDS011;32907;41.412;2.164;2023-06-19T15:03:55;9.70;;;3.50;;
47153;SDS011;32907;41.412;2.164;2023-06-19T15:06:23;11.38;;;3.80;;